sensor_id;sensor_type;location;lat;lon;timestamp;pressure;altitude;pressure_sealevel;temperature;humidity
64200;BME280;50516;52.272;5.136;2023-04-15T00:02:21;100900.34;;;11.08;53.40
64200;BME280;50516;52.272;5.136;2023-04-15T00:04:47;100905.31;;;11.06;54.10
64200;BME280;50516;52.272;5.136;2023-04-15T00:07:13;100902.53;;;11.01;54.07
64200;BME280;50516;52.272;5.136;2023-04-15T00:09:45;100908.59;;;11.03;54.17
64200;BME280;50516;52.272;5.136;2023-04-15T00:12:11;100913.53;;;10.96;54.75
64200;BME280;50516;52.272;5.136;2023-04-15T00:14:36;100908.84;;;10.91;54.98
64200;BME280;50516;52.272;5.136;2023-04-15T00:17:02;100908.03;;;11.01;54.99
64200;BME280;50516;52.272;5.136;2023-04-15T00:19:28;100901.72;;;10.90;55.32
64200;BME280;50516;52.272;5.136;2023-04-15T00:21:54;100904.19;;;10.97;55.48
64200;BME280;50516;52.272;5.136;2023-04-15T00:24:19;100906.09;;;10.91;55.62
64200;BME280;50516;52.272;5.136;2023-04-15T00:26:47;100901.72;;;10.90;55.54
64200;BME280;50516;52.272;5.136;2023-04-15T00:29:13;100908.56;;;10.88;55.99
64200;BME280;50516;52.272;5.136;2023-04-15T00:31:39;100900.88;;;10.90;55.77
64200;BME280;50516;52.272;5.136;2023-04-15T00:34:05;100902.00;;;10.89;56.04
64200;BME280;50516;52.272;5.136;2023-04-15T00:36:30;100900.59;;;10.91;56.25
64200;BME280;50516;52.272;5.136;2023-04-15T00:38:57;100908.31;;;10.94;55.95
64200;BME280;50516;52.272;5.136;2023-04-15T00:41:23;100909.69;;;10.97;56.12
64200;BME280;50516;52.272;5.136;2023-04-15T00:43:49;100906.63;;;10.88;56.14
64200;BME280;50516;52.272;5.136;2023-04-15T00:46:15;100909.38;;;10.88;56.23
64200;BME280;50516;52.272;5.136;2023-04-15T00:48:42;100909.13;;;10.85;56.32
64200;BME280;50516;52.272;5.136;2023-04-15T00:51:07;100907.19;;;10.75;56.42
64200;BME280;50516;52.272;5.136;2023-04-15T00:53:33;100906.09;;;10.91;56.08
64200;BME280;50516;52.272;5.136;2023-04-15T00:55:59;100912.44;;;10.92;56.15
64200;BME280;50516;52.272;5.136;2023-04-15T00:58:25;100909.13;;;10.80;56.46
64200;BME280;50516;52.272;5.136;2023-04-15T01:00:50;100915.41;;;10.80;56.77
64200;BME280;50516;52.272;5.136;2023-04-15T01:03:18;100911.59;;;10.71;57.44
64200;BME280;50516;52.272;5.136;2023-04-15T01:05:44;100910.78;;;10.75;57.09
64200;BME280;50516;52.272;5.136;2023-04-15T01:08:10;100912.41;;;10.76;56.96
64200;BME280;50516;52.272;5.136;2023-04-15T01:10:36;100920.63;;;10.61;57.79
64200;BME280;50516;52.272;5.136;2023-04-15T01:13:02;100918.97;;;10.65;57.59
64200;BME280;50516;52.272;5.136;2023-04-15T01:15:28;100913.47;;;10.55;57.84
64200;BME280;50516;52.272;5.136;2023-04-15T01:17:53;100917.72;;;10.30;58.29
64200;BME280;50516;52.272;5.136;2023-04-15T01:20:19;100918.88;;;10.34;58.31
64200;BME280;50516;52.272;5.136;2023-04-15T01:22:47;100912.84;;;10.37;58.64
64200;BME280;50516;52.272;5.136;2023-04-15T01:25:17;100910.13;;;10.43;58.13
64200;BME280;50516;52.272;5.136;2023-04-15T01:27:43;100918.63;;;10.41;58.36
64200;BME280;50516;52.272;5.136;2023-04-15T01:30:08;100916.41;;;10.33;58.42
64200;BME280;50516;52.272;5.136;2023-04-15T01:32:35;100927.06;;;10.29;58.61
64200;BME280;50516;52.272;5.136;2023-04-15T01:35:00;100916.34;;;10.28;59.01
64200;BME280;50516;52.272;5.136;2023-04-15T01:37:26;100920.44;;;10.25;59.05
64200;BME280;50516;52.272;5.136;2023-04-15T01:39:52;100925.69;;;10.32;58.44
64200;BME280;50516;52.272;5.136;2023-04-15T01:42:18;100917.13;;;10.13;59.03
64200;BME280;50516;52.272;5.136;2023-04-15T01:44:43;100917.97;;;10.18;59.47
64200;BME280;50516;52.272;5.136;2023-04-15T01:47:08;100923.72;;;10.22;59.33
64200;BME280;50516;52.272;5.136;2023-04-15T01:49:34;100921.25;;;10.20;59.50
64200;BME280;50516;52.272;5.136;2023-04-15T01:52:00;100919.88;;;10.13;59.45
64200;BME280;50516;52.272;5.136;2023-04-15T01:54:25;100922.56;;;10.08;59.67
64200;BME280;50516;52.272;5.136;2023-04-15T01:56:52;100923.66;;;10.01;59.84
64200;BME280;50516;52.272;5.136;2023-04-15T01:59:17;100923.13;;;10.04;60.28
64200;BME280;50516;52.272;5.136;2023-04-15T02:01:43;100925.03;;;10.09;60.24
64200;BME280;50516;52.272;5.136;2023-04-15T02:04:09;100924.19;;;9.98;60.83
64200;BME280;50516;52.272;5.136;2023-04-15T02:06:41;100925.50;;;9.85;61.29
64200;BME280;50516;52.272;5.136;2023-04-15T02:09:07;100919.97;;;9.80;61.35
64200;BME280;50516;52.272;5.136;2023-04-15T02:11:33;100931.16;;;9.74;62.30
64200;BME280;50516;52.272;5.136;2023-04-15T02:13:59;100920.78;;;9.81;62.15
64200;BME280;50516;52.272;5.136;2023-04-15T02:16:24;100922.75;;;9.85;61.88
64200;BME280;50516;52.272;5.136;2023-04-15T02:18:50;100929.81;;;9.76;62.57
64200;BME280;50516;52.272;5.136;2023-04-15T02:21:16;100927.84;;;9.72;62.72
64200;BME280;50516;52.272;5.136;2023-04-15T02:23:43;100930.88;;;9.70;62.91
64200;BME280;50516;52.272;5.136;2023-04-15T02:26:08;100931.38;;;9.67;63.23
64200;BME280;50516;52.272;5.136;2023-04-15T02:28:34;100933.88;;;9.68;63.61
64200;BME280;50516;52.272;5.136;2023-04-15T02:31:00;100936.88;;;9.67;63.57
64200;BME280;50516;52.272;5.136;2023-04-15T02:33:26;100934.09;;;9.62;63.76
64200;BME280;50516;52.272;5.136;2023-04-15T02:35:51;100947.25;;;9.60;64.18
64200;BME280;50516;52.272;5.136;2023-04-15T02:38:17;100944.16;;;9.51;64.92
64200;BME280;50516;52.272;5.136;2023-04-15T02:40:42;100951.22;;;9.42;65.18
64200;BME280;50516;52.272;5.136;2023-04-15T02:43:08;100945.16;;;9.40;65.69
64200;BME280;50516;52.272;5.136;2023-04-15T02:45:33;100948.22;;;9.43;65.88
64200;BME280;50516;52.272;5.136;2023-04-15T02:47:59;100952.88;;;9.43;66.24
64200;BME280;50516;52.272;5.136;2023-04-15T02:50:27;100960.50;;;9.36;66.70
64200;BME280;50516;52.272;5.136;2023-04-15T02:52:53;100957.47;;;9.32;66.92
64200;BME280;50516;52.272;5.136;2023-04-15T02:55:18;100966.75;;;9.31;66.96
64200;BME280;50516;52.272;5.136;2023-04-15T02:57:43;100962.16;;;9.37;67.30
64200;BME280;50516;52.272;5.136;2023-04-15T03:00:09;100968.81;;;9.51;66.75
64200;BME280;50516;52.272;5.136;2023-04-15T03:02:37;100966.31;;;9.44;67.02
64200;BME280;50516;52.272;5.136;2023-04-15T03:05:03;100970.06;;;9.33;67.50
64200;BME280;50516;52.272;5.136;2023-04-15T03:07:29;100966.19;;;9.29;67.75
64200;BME280;50516;52.272;5.136;2023-04-15T03:09:55;100968.72;;;9.36;67.31
64200;BME280;50516;52.272;5.136;2023-04-15T03:12:20;100976.94;;;9.36;67.57
64200;BME280;50516;52.272;5.136;2023-04-15T03:14:45;100975.75;;;9.26;68.36
64200;BME280;50516;52.272;5.136;2023-04-15T03:17:11;100976.31;;;9.28;68.27
64200;BME280;50516;52.272;5.136;2023-04-15T03:19:36;100981.84;;;9.34;68.17
64200;BME280;50516;52.272;5.136;2023-04-15T03:22:01;100983.75;;;9.33;68.32
64200;BME280;50516;52.272;5.136;2023-04-15T03:24:27;100982.09;;;9.27;68.73
64200;BME280;50516;52.272;5.136;2023-04-15T03:26:54;100981.78;;;9.28;69.00
64200;BME280;50516;52.272;5.136;2023-04-15T03:29:23;100991.69;;;9.29;68.65
64200;BME280;50516;52.272;5.136;2023-04-15T03:31:48;100988.69;;;9.31;68.91
64200;BME280;50516;52.272;5.136;2023-04-15T03:34:14;100995.50;;;9.28;69.01
64200;BME280;50516;52.272;5.136;2023-04-15T03:36:39;100996.59;;;9.27;69.32
64200;BME280;50516;52.272;5.136;2023-04-15T03:39:04;100988.34;;;9.22;69.09
64200;BME280;50516;52.272;5.136;2023-04-15T03:41:30;100999.75;;;9.14;69.82
64200;BME280;50516;52.272;5.136;2023-04-15T03:43:56;101003.06;;;9.16;69.67
64200;BME280;50516;52.272;5.136;2023-04-15T03:46:22;100993.63;;;9.34;69.08
64200;BME280;50516;52.272;5.136;2023-04-15T03:48:47;101009.16;;;9.23;69.80
64200;BME280;50516;52.272;5.136;2023-04-15T03:51:12;101008.03;;;9.19;69.62
64200;BME280;50516;52.272;5.136;2023-04-15T03:53:38;101005.44;;;9.07;70.40
64200;BME280;50516;52.272;5.136;2023-04-15T03:56:03;101011.41;;;9.04;70.50
64200;BME280;50516;52.272;5.136;2023-04-15T03:58:29;101014.94;;;9.00;71.01
64200;BME280;50516;52.272;5.136;2023-04-15T04:00:54;101016.78;;;8.94;71.08
64200;BME280;50516;52.272;5.136;2023-04-15T04:03:20;101015.50;;;9.02;71.30
64200;BME280;50516;52.272;5.136;2023-04-15T04:05:46;101019.59;;;8.99;71.20
64200;BME280;50516;52.272;5.136;2023-04-15T04:08:11;101022.72;;;9.08;71.19
64200;BME280;50516;52.272;5.136;2023-04-15T04:10:40;101028.78;;;8.88;71.94
64200;BME280;50516;52.272;5.136;2023-04-15T04:13:05;101022.06;;;9.01;71.57
64200;BME280;50516;52.272;5.136;2023-04-15T04:15:31;101030.59;;;9.04;71.34
64200;BME280;50516;52.272;5.136;2023-04-15T04:17:56;101031.31;;;8.94;71.83
64200;BME280;50516;52.272;5.136;2023-04-15T04:20:22;101042.81;;;8.91;72.22
64200;BME280;50516;52.272;5.136;2023-04-15T04:22:47;101036.72;;;8.89;72.04
64200;BME280;50516;52.272;5.136;2023-04-15T04:25:12;101041.09;;;8.85;72.21
64200;BME280;50516;52.272;5.136;2023-04-15T04:27:38;101039.16;;;8.86;72.37
64200;BME280;50516;52.272;5.136;2023-04-15T04:30:04;101046.91;;;8.72;73.12
64200;BME280;50516;52.272;5.136;2023-04-15T04:32:30;101051.13;;;8.80;73.00
64200;BME280;50516;52.272;5.136;2023-04-15T04:34:56;101056.28;;;8.76;73.39
64200;BME280;50516;52.272;5.136;2023-04-15T04:37:21;101050.38;;;8.84;72.84
64200;BME280;50516;52.272;5.136;2023-04-15T04:39:47;101063.44;;;8.77;73.26
64200;BME280;50516;52.272;5.136;2023-04-15T04:42:13;101061.81;;;8.81;72.80
64200;BME280;50516;52.272;5.136;2023-04-15T04:44:38;101070.34;;;8.85;72.49
64200;BME280;50516;52.272;5.136;2023-04-15T04:47:03;101075.47;;;8.76;73.11
64200;BME280;50516;52.272;5.136;2023-04-15T04:49:28;101082.34;;;8.79;72.74
64200;BME280;50516;52.272;5.136;2023-04-15T04:51:54;101086.16;;;8.77;72.74
64200;BME280;50516;52.272;5.136;2023-04-15T04:54:19;101092.84;;;8.65;73.75
64200;BME280;50516;52.272;5.136;2023-04-15T04:56:45;101093.28;;;8.56;74.07
64200;BME280;50516;52.272;5.136;2023-04-15T04:59:11;101092.31;;;8.68;73.67
64200;BME280;50516;52.272;5.136;2023-04-15T05:01:36;101097.88;;;8.73;73.11
64200;BME280;50516;52.272;5.136;2023-04-15T05:04:01;101105.50;;;8.71;73.54
64200;BME280;50516;52.272;5.136;2023-04-15T05:06:28;101109.06;;;8.71;73.76
64200;BME280;50516;52.272;5.136;2023-04-15T05:08:55;101110.22;;;8.75;73.50
64200;BME280;50516;52.272;5.136;2023-04-15T05:11:20;101118.09;;;8.72;73.63
64200;BME280;50516;52.272;5.136;2023-04-15T05:13:46;101118.22;;;8.60;74.30
64200;BME280;50516;52.272;5.136;2023-04-15T05:16:11;101123.63;;;8.55;74.40
64200;BME280;50516;52.272;5.136;2023-04-15T05:18:36;101129.91;;;8.55;74.56
64200;BME280;50516;52.272;5.136;2023-04-15T05:21:02;101134.50;;;8.50;75.07
64200;BME280;50516;52.272;5.136;2023-04-15T05:23:27;101137.63;;;8.58;75.05
64200;BME280;50516;52.272;5.136;2023-04-15T05:25:52;101133.31;;;8.63;74.52
64200;BME280;50516;52.272;5.136;2023-04-15T05:28:18;101138.31;;;8.49;75.02
64200;BME280;50516;52.272;5.136;2023-04-15T05:30:43;101137.44;;;8.43;75.43
64200;BME280;50516;52.272;5.136;2023-04-15T05:33:08;101147.59;;;8.31;76.16
64200;BME280;50516;52.272;5.136;2023-04-15T05:35:34;101159.59;;;8.30;76.38
64200;BME280;50516;52.272;5.136;2023-04-15T05:37:59;101154.41;;;8.45;76.12
64200;BME280;50516;52.272;5.136;2023-04-15T05:40:25;101157.16;;;8.45;75.84
64200;BME280;50516;52.272;5.136;2023-04-15T05:42:50;101165.56;;;8.61;75.15
64200;BME280;50516;52.272;5.136;2023-04-15T05:45:16;101152.81;;;8.66;75.32
64200;BME280;50516;52.272;5.136;2023-04-15T05:47:41;101174.94;;;8.65;75.25
64200;BME280;50516;52.272;5.136;2023-04-15T05:50:06;101164.38;;;8.73;75.15
64200;BME280;50516;52.272;5.136;2023-04-15T05:52:32;101179.13;;;8.89;74.79
64200;BME280;50516;52.272;5.136;2023-04-15T05:54:57;101185.38;;;9.07;73.88
64200;BME280;50516;52.272;5.136;2023-04-15T05:57:23;101191.53;;;9.14;74.14
64200;BME280;50516;52.272;5.136;2023-04-15T05:59:48;101196.16;;;9.13;74.08
64200;BME280;50516;52.272;5.136;2023-04-15T06:02:16;101197.44;;;9.28;73.85
64200;BME280;50516;52.272;5.136;2023-04-15T06:04:41;101202.88;;;9.45;73.47
64200;BME280;50516;52.272;5.136;2023-04-15T06:07:07;101216.31;;;9.46;73.17
64200;BME280;50516;52.272;5.136;2023-04-15T06:09:32;101208.84;;;9.42;73.54
64200;BME280;50516;52.272;5.136;2023-04-15T06:11:58;101219.38;;;9.50;73.40
64200;BME280;50516;52.272;5.136;2023-04-15T06:14:23;101226.13;;;9.42;73.80
64200;BME280;50516;52.272;5.136;2023-04-15T06:16:48;101236.31;;;9.47;73.18
64200;BME280;50516;52.272;5.136;2023-04-15T06:19:14;101239.44;;;9.34;73.99
64200;BME280;50516;52.272;5.136;2023-04-15T06:21:40;101241.09;;;9.35;74.04
64200;BME280;50516;52.272;5.136;2023-04-15T06:24:06;101244.44;;;9.37;73.95
64200;BME280;50516;52.272;5.136;2023-04-15T06:26:31;101243.56;;;9.36;74.19
64200;BME280;50516;52.272;5.136;2023-04-15T06:28:56;101252.19;;;9.45;73.88
64200;BME280;50516;52.272;5.136;2023-04-15T06:31:22;101256.06;;;9.49;73.77
64200;BME280;50516;52.272;5.136;2023-04-15T06:33:47;101244.41;;;9.59;73.60
64200;BME280;50516;52.272;5.136;2023-04-15T06:36:12;101249.78;;;9.71;73.39
64200;BME280;50516;52.272;5.136;2023-04-15T06:38:38;101267.50;;;9.63;73.50
64200;BME280;50516;52.272;5.136;2023-04-15T06:41:03;101269.53;;;9.73;73.12
64200;BME280;50516;52.272;5.136;2023-04-15T06:43:29;101258.75;;;9.66;73.23
64200;BME280;50516;52.272;5.136;2023-04-15T06:45:55;101261.78;;;9.92;72.68
64200;BME280;50516;52.272;5.136;2023-04-15T06:48:20;101268.09;;;9.92;72.50
64200;BME280;50516;52.272;5.136;2023-04-15T06:50:46;101277.34;;;9.86;72.78
64200;BME280;50516;52.272;5.136;2023-04-15T06:53:12;101278.03;;;9.98;72.33
64200;BME280;50516;52.272;5.136;2023-04-15T06:55:37;101281.38;;;10.28;71.43
64200;BME280;50516;52.272;5.136;2023-04-15T06:58:02;101281.00;;;10.46;71.35
64200;BME280;50516;52.272;5.136;2023-04-15T07:00:28;101293.38;;;10.49;71.10
64200;BME280;50516;52.272;5.136;2023-04-15T07:02:53;101297.72;;;10.45;71.14
64200;BME280;50516;52.272;5.136;2023-04-15T07:05:19;101304.13;;;10.28;71.22
64200;BME280;50516;52.272;5.136;2023-04-15T07:07:45;101301.28;;;10.40;70.89
64200;BME280;50516;52.272;5.136;2023-04-15T07:10:10;101307.63;;;10.46;70.52
64200;BME280;50516;52.272;5.136;2023-04-15T07:12:36;101309.69;;;10.60;70.32
64200;BME280;50516;52.272;5.136;2023-04-15T07:15:02;101316.41;;;10.75;69.68
64200;BME280;50516;52.272;5.136;2023-04-15T07:17:27;101318.78;;;10.61;70.08
64200;BME280;50516;52.272;5.136;2023-04-15T07:19:52;101327.66;;;10.73;69.69
64200;BME280;50516;52.272;5.136;2023-04-15T07:22:18;101325.16;;;10.72;68.97
64200;BME280;50516;52.272;5.136;2023-04-15T07:24:43;101325.34;;;10.60;68.94
64200;BME280;50516;52.272;5.136;2023-04-15T07:27:09;101324.75;;;10.53;68.67
64200;BME280;50516;52.272;5.136;2023-04-15T07:29:34;101335.44;;;10.54;68.83
64200;BME280;50516;52.272;5.136;2023-04-15T07:31:59;101338.25;;;10.59;68.05
64200;BME280;50516;52.272;5.136;2023-04-15T07:34:25;101340.22;;;10.64;67.61
64200;BME280;50516;52.272;5.136;2023-04-15T07:36:50;101350.63;;;10.62;67.79
64200;BME280;50516;52.272;5.136;2023-04-15T07:39:17;101349.28;;;10.97;66.99
64200;BME280;50516;52.272;5.136;2023-04-15T07:41:42;101350.56;;;11.22;66.38
64200;BME280;50516;52.272;5.136;2023-04-15T07:44:07;101348.06;;;11.20;66.42
64200;BME280;50516;52.272;5.136;2023-04-15T07:46:33;101353.44;;;11.42;65.47
64200;BME280;50516;52.272;5.136;2023-04-15T07:48:58;101359.09;;;11.25;65.35
64200;BME280;50516;52.272;5.136;2023-04-15T07:51:24;101364.03;;;11.23;65.21
64200;BME280;50516;52.272;5.136;2023-04-15T07:53:49;101368.25;;;11.36;64.92
64200;BME280;50516;52.272;5.136;2023-04-15T07:56:15;101369.25;;;11.20;65.27
64200;BME280;50516;52.272;5.136;2023-04-15T07:58:40;101379.47;;;11.29;65.69
64200;BME280;50516;52.272;5.136;2023-04-15T08:01:06;101383.22;;;11.56;65.40
64200;BME280;50516;52.272;5.136;2023-04-15T08:03:31;101392.78;;;11.91;64.44
64200;BME280;50516;52.272;5.136;2023-04-15T08:05:57;101396.22;;;11.70;64.64
64200;BME280;50516;52.272;5.136;2023-04-15T08:08:23;101397.72;;;11.88;64.56
64200;BME280;50516;52.272;5.136;2023-04-15T08:10:50;101392.84;;;12.06;64.20
64200;BME280;50516;52.272;5.136;2023-04-15T08:13:15;101402.22;;;12.05;63.94
64200;BME280;50516;52.272;5.136;2023-04-15T08:15:41;101398.00;;;11.87;63.45
64200;BME280;50516;52.272;5.136;2023-04-15T08:18:06;101413.06;;;11.74;63.16
64200;BME280;50516;52.272;5.136;2023-04-15T08:20:32;101401.94;;;11.59;63.89
64200;BME280;50516;52.272;5.136;2023-04-15T08:22:57;101409.44;;;11.68;63.43
64200;BME280;50516;52.272;5.136;2023-04-15T08:25:23;101411.16;;;11.80;63.26
64200;BME280;50516;52.272;5.136;2023-04-15T08:27:48;101415.72;;;12.01;63.01
64200;BME280;50516;52.272;5.136;2023-04-15T08:30:13;101419.91;;;12.19;62.63
64200;BME280;50516;52.272;5.136;2023-04-15T08:32:41;101418.25;;;12.23;62.04
64200;BME280;50516;52.272;5.136;2023-04-15T08:35:07;101419.38;;;12.22;62.35
64200;BME280;50516;52.272;5.136;2023-04-15T08:37:33;101419.59;;;12.11;62.69
64200;BME280;50516;52.272;5.136;2023-04-15T08:39:58;101421.75;;;11.98;62.81
64200;BME280;50516;52.272;5.136;2023-04-15T08:42:30;101420.66;;;12.04;63.10
64200;BME280;50516;52.272;5.136;2023-04-15T08:45:00;101443.28;;;12.17;61.91
64200;BME280;50516;52.272;5.136;2023-04-15T08:47:29;101442.13;;;12.08;60.98
64200;BME280;50516;52.272;5.136;2023-04-15T08:49:56;101445.50;;;12.15;61.15
64200;BME280;50516;52.272;5.136;2023-04-15T08:52:25;101446.56;;;12.09;61.14
64200;BME280;50516;52.272;5.136;2023-04-15T08:54:52;101455.06;;;12.07;61.12
64200;BME280;50516;52.272;5.136;2023-04-15T08:57:24;101455.34;;;12.05;60.89
64200;BME280;50516;52.272;5.136;2023-04-15T08:59:51;101455.59;;;11.99;61.42
64200;BME280;50516;52.272;5.136;2023-04-15T09:02:17;101457.34;;;12.26;61.57
64200;BME280;50516;52.272;5.136;2023-04-15T09:04:42;101457.72;;;12.50;60.20
64200;BME280;50516;52.272;5.136;2023-04-15T09:07:07;101465.16;;;12.44;59.51
64200;BME280;50516;52.272;5.136;2023-04-15T09:09:33;101462.13;;;12.46;58.32
64200;BME280;50516;52.272;5.136;2023-04-15T09:12:00;101469.09;;;12.69;59.06
64200;BME280;50516;52.272;5.136;2023-04-15T09:14:27;101465.78;;;12.67;58.71
64200;BME280;50516;52.272;5.136;2023-04-15T09:17:01;101475.13;;;12.60;59.25
64200;BME280;50516;52.272;5.136;2023-04-15T09:19:27;101484.69;;;12.42;58.84
64200;BME280;50516;52.272;5.136;2023-04-15T09:21:55;101501.06;;;12.12;59.52
64200;BME280;50516;52.272;5.136;2023-04-15T09:24:23;101492.00;;;12.11;60.09
64200;BME280;50516;52.272;5.136;2023-04-15T09:26:52;101497.97;;;12.03;59.71
64200;BME280;50516;52.272;5.136;2023-04-15T09:29:23;101494.69;;;12.06;59.69
64200;BME280;50516;52.272;5.136;2023-04-15T09:31:49;101510.75;;;12.19;59.99
64200;BME280;50516;52.272;5.136;2023-04-15T09:34:14;101509.84;;;12.03;59.93
64200;BME280;50516;52.272;5.136;2023-04-15T09:39:12;101510.44;;;12.16;60.41
64200;BME280;50516;52.272;5.136;2023-04-15T09:41:37;101513.03;;;12.33;59.82
64200;BME280;50516;52.272;5.136;2023-04-15T09:44:03;101524.72;;;12.66;59.75
64200;BME280;50516;52.272;5.136;2023-04-15T09:46:44;101529.72;;;12.74;59.56
64200;BME280;50516;52.272;5.136;2023-04-15T09:49:11;101527.56;;;12.81;59.95
64200;BME280;50516;52.272;5.136;2023-04-15T09:51:37;101530.03;;;12.88;59.99
64200;BME280;50516;52.272;5.136;2023-04-15T09:54:02;101536.72;;;13.07;60.27
64200;BME280;50516;52.272;5.136;2023-04-15T09:56:36;101524.81;;;12.96;60.37
64200;BME280;50516;52.272;5.136;2023-04-15T09:59:04;101541.69;;;13.10;61.57
64200;BME280;50516;52.272;5.136;2023-04-15T10:01:30;101536.44;;;12.99;62.25
64200;BME280;50516;52.272;5.136;2023-04-15T10:03:56;101544.44;;;13.21;62.14
64200;BME280;50516;52.272;5.136;2023-04-15T10:06:24;101532.59;;;13.20;61.30
64200;BME280;50516;52.272;5.136;2023-04-15T10:08:50;101543.34;;;13.11;60.59
64200;BME280;50516;52.272;5.136;2023-04-15T10:11:17;101541.94;;;13.09;60.70
64200;BME280;50516;52.272;5.136;2023-04-15T10:13:43;101545.34;;;13.37;60.93
64200;BME280;50516;52.272;5.136;2023-04-15T10:16:11;101555.81;;;13.45;61.15
64200;BME280;50516;52.272;5.136;2023-04-15T10:18:42;101550.31;;;13.40;61.22
64200;BME280;50516;52.272;5.136;2023-04-15T10:21:08;101552.81;;;13.57;60.96
64200;BME280;50516;52.272;5.136;2023-04-15T10:23:34;101560.25;;;13.41;62.60
64200;BME280;50516;52.272;5.136;2023-04-15T10:26:00;101564.94;;;13.56;62.60
64200;BME280;50516;52.272;5.136;2023-04-15T10:28:27;101566.06;;;13.65;62.05
64200;BME280;50516;52.272;5.136;2023-04-15T10:30:52;101556.97;;;13.75;60.93
64200;BME280;50516;52.272;5.136;2023-04-15T10:33:21;101567.44;;;13.93;60.28
64200;BME280;50516;52.272;5.136;2023-04-15T10:35:48;101556.94;;;13.85;59.59
64200;BME280;50516;52.272;5.136;2023-04-15T10:41:22;101582.34;;;13.72;61.59
64200;BME280;50516;52.272;5.136;2023-04-15T10:44:03;101590.34;;;13.68;61.89
64200;BME280;50516;52.272;5.136;2023-04-15T10:46:41;101581.81;;;13.95;61.06
64200;BME280;50516;52.272;5.136;2023-04-15T10:49:23;101580.41;;;13.98;61.41
64200;BME280;50516;52.272;5.136;2023-04-15T10:51:56;101596.97;;;13.93;60.86
64200;BME280;50516;52.272;5.136;2023-04-15T10:56:52;101589.22;;;14.20;60.72
64200;BME280;50516;52.272;5.136;2023-04-15T10:59:32;101603.88;;;14.00;61.10
64200;BME280;50516;52.272;5.136;2023-04-15T11:02:02;101598.34;;;13.85;60.75
64200;BME280;50516;52.272;5.136;2023-04-15T11:04:50;101617.13;;;13.73;61.20
64200;BME280;50516;52.272;5.136;2023-04-15T11:12:56;101604.69;;;14.01;58.46
64200;BME280;50516;52.272;5.136;2023-04-15T11:18:11;101606.91;;;14.24;56.75
64200;BME280;50516;52.272;5.136;2023-04-15T11:20:38;101595.28;;;14.22;57.45
64200;BME280;50516;52.272;5.136;2023-04-15T11:23:05;101608.75;;;14.70;55.40
64200;BME280;50516;52.272;5.136;2023-04-15T11:25:32;101599.31;;;14.82;55.70
64200;BME280;50516;52.272;5.136;2023-04-15T11:27:59;101612.09;;;14.47;55.68
64200;BME280;50516;52.272;5.136;2023-04-15T11:30:27;101619.81;;;14.50;55.01
64200;BME280;50516;52.272;5.136;2023-04-15T11:32:56;101624.84;;;14.22;55.83
64200;BME280;50516;52.272;5.136;2023-04-15T11:35:22;101625.09;;;14.25;55.36
64200;BME280;50516;52.272;5.136;2023-04-15T11:37:48;101638.66;;;14.37;55.98
64200;BME280;50516;52.272;5.136;2023-04-15T11:40:14;101633.94;;;14.22;55.84
64200;BME280;50516;52.272;5.136;2023-04-15T11:42:42;101630.94;;;14.09;55.70
64200;BME280;50516;52.272;5.136;2023-04-15T11:45:08;101640.28;;;14.49;55.72
64200;BME280;50516;52.272;5.136;2023-04-15T11:47:35;101638.00;;;14.82;55.56
64200;BME280;50516;52.272;5.136;2023-04-15T11:50:15;101637.25;;;14.50;56.55
64200;BME280;50516;52.272;5.136;2023-04-15T11:52:51;101640.25;;;14.69;56.35
64200;BME280;50516;52.272;5.136;2023-04-15T11:55:17;101642.97;;;14.85;56.42
64200;BME280;50516;52.272;5.136;2023-04-15T11:57:42;101643.00;;;14.79;56.01
64200;BME280;50516;52.272;5.136;2023-04-15T12:00:09;101653.69;;;15.02;56.21
64200;BME280;50516;52.272;5.136;2023-04-15T12:02:36;101648.38;;;15.15;55.01
64200;BME280;50516;52.272;5.136;2023-04-15T12:05:05;101650.34;;;15.05;55.82
64200;BME280;50516;52.272;5.136;2023-04-15T12:07:30;101657.94;;;14.53;56.36
64200;BME280;50516;52.272;5.136;2023-04-15T12:09:56;101640.81;;;14.71;56.31
64200;BME280;50516;52.272;5.136;2023-04-15T12:12:26;101660.44;;;14.54;56.45
64200;BME280;50516;52.272;5.136;2023-04-15T12:14:52;101661.78;;;14.83;56.66
64200;BME280;50516;52.272;5.136;2023-04-15T12:17:17;101662.66;;;14.73;57.71
64200;BME280;50516;52.272;5.136;2023-04-15T12:19:43;101662.38;;;14.43;56.82
64200;BME280;50516;52.272;5.136;2023-04-15T12:22:14;101665.16;;;14.49;57.72
64200;BME280;50516;52.272;5.136;2023-04-15T12:24:41;101673.69;;;14.78;57.17
64200;BME280;50516;52.272;5.136;2023-04-15T12:27:13;101674.81;;;14.31;58.07
64200;BME280;50516;52.272;5.136;2023-04-15T12:29:40;101680.63;;;14.09;59.03
64200;BME280;50516;52.272;5.136;2023-04-15T12:32:10;101683.91;;;13.85;58.86
64200;BME280;50516;52.272;5.136;2023-04-15T12:34:56;101678.97;;;13.97;60.34
64200;BME280;50516;52.272;5.136;2023-04-15T12:37:22;101682.31;;;14.20;59.50
64200;BME280;50516;52.272;5.136;2023-04-15T12:39:48;101692.22;;;14.16;59.55
64200;BME280;50516;52.272;5.136;2023-04-15T12:42:15;101700.50;;;14.11;58.67
64200;BME280;50516;52.272;5.136;2023-04-15T12:44:40;101692.78;;;14.38;58.02
64200;BME280;50516;52.272;5.136;2023-04-15T12:47:08;101699.97;;;14.29;58.94
64200;BME280;50516;52.272;5.136;2023-04-15T12:49:33;101712.94;;;14.29;59.24
64200;BME280;50516;52.272;5.136;2023-04-15T12:52:00;101708.25;;;14.39;59.28
64200;BME280;50516;52.272;5.136;2023-04-15T12:54:26;101719.03;;;14.10;58.69
64200;BME280;50516;52.272;5.136;2023-04-15T12:56:52;101716.41;;;13.52;60.35
64200;BME280;50516;52.272;5.136;2023-04-15T12:59:18;101727.47;;;13.52;59.51
64200;BME280;50516;52.272;5.136;2023-04-15T13:01:45;101728.34;;;13.73;59.92
64200;BME280;50516;52.272;5.136;2023-04-15T13:04:10;101721.81;;;13.31;60.75
64200;BME280;50516;52.272;5.136;2023-04-15T13:06:35;101733.53;;;13.59;60.29